ADDS METAR Data INFO
IDs: Format: Raw Decoded Include TAF

Data at: 1249 UTC 19 Oct 2017

KBAK 191245Z 17005KT 10SM SKC 09/07 A3022
KBAK 191145Z 18005KT 10SM SKC 07/05 A3021
KBAK 191045Z 17004KT 10SM SKC 06/05 A3021
KBAK 191030Z 00000KT 10SM SKC 07/05 A3021
KBAK 190145Z 18005KT 10SM SKC 12/06 A3017 RMK LAST
KBAK 190045Z 16004KT 10SM SKC 13/05 A3019
KBAK 182345Z 16004KT 10SM SKC 13/04 A3018
KBAK 182245Z 18008KT 10SM SKC 17/03 A3019
KBAK 182159Z 20014KT 10SM SKC 19/01 A3020
KBAK 182045Z 20014KT 10SM SKC 20/01 A3020
KBAK 181945Z 20010G14KT 10SM SKC 20/01 A3020
KBAK 181845Z 20010KT 10SM SKC 20/02 A3023
KBAK 181757Z 17009KT 10SM FEW200 19/03 A3025
KBAK 181649Z 18009KT 10SM FEW200 18/03 A3029
KBAK 181545Z 22007KT 10SM FEW200 15/06 A3031
KBAK 181454Z 20005KT 10SM FEW200 13/06 A3031
KBAK 181356Z 16003KT 10SM FEW150 09/07 A3032
KBAK 181252Z 00000KT 10SM FEW150 05/04 A3031
KBAK 181153Z 00000KT 10SM SKC 04/03 A3029
KBAK 181045Z 00000KT 10SM SKC 04/03 A3028
KBAK 181030Z 00000KT 10SM SKC 04/03 A3028 RMK FIRST
KBAK 180145Z 00000KT 10SM SKC 09/05 A3027